createdAt,value
2023-05-19T00:00:58.005Z,78.53
2023-05-19T00:03:24.997Z,78.41
2023-05-19T00:05:53.792Z,78.26
2023-05-19T00:08:20.838Z,78.06
2023-05-19T00:10:47.830Z,77.92
2023-05-19T00:13:14.787Z,78.10
2023-05-19T00:15:41.833Z,78.14
2023-05-19T00:18:09.171Z,77.96
2023-05-19T00:20:37.880Z,78.03
2023-05-19T00:23:04.814Z,77.85
2023-05-19T00:25:31.634Z,77.48
2023-05-19T00:27:59.990Z,77.39
2023-05-19T00:30:27.037Z,77.12
2023-05-19T00:32:54.004Z,77.08
2023-05-19T00:35:21.090Z,77.15
2023-05-19T00:37:48.940Z,77.27
2023-05-19T00:40:15.779Z,77.41
2023-05-19T00:42:42.850Z,77.60
2023-05-19T00:45:09.778Z,77.96
2023-05-19T00:47:36.715Z,78.13
2023-05-19T00:50:03.974Z,77.98
2023-05-19T00:52:30.939Z,78.04
2023-05-19T00:54:57.708Z,78.06
2023-05-19T00:57:24.666Z,78.21
2023-05-19T00:59:51.457Z,78.42
2023-05-19T01:02:18.245Z,78.68
2023-05-19T01:04:45.191Z,78.98
2023-05-19T01:07:12.645Z,79.29
2023-05-19T01:09:40.916Z,79.43
2023-05-19T01:12:08.697Z,79.72
2023-05-19T01:14:35.528Z,80.01
2023-05-19T01:17:10.165Z,80.21
2023-05-19T01:19:41.672Z,80.25
2023-05-19T01:22:23.215Z,80.32
2023-05-19T01:24:59.480Z,80.19
2023-05-19T01:27:32.525Z,79.66
2023-05-19T01:30:06.199Z,79.58
2023-05-19T01:32:33.158Z,79.24
2023-05-19T01:43:43.332Z,79.26
2023-05-19T01:46:10.217Z,79.39
2023-05-19T01:48:37.319Z,79.48
2023-05-19T01:51:04.322Z,79.87
2023-05-19T01:53:31.164Z,80.02
2023-05-19T01:56:00.289Z,80.03
2023-05-19T01:58:46.463Z,80.12
2023-05-19T02:01:13.437Z,80.27
2023-05-19T02:03:43.842Z,80.92
2023-05-19T02:06:15.017Z,81.15
2023-05-19T02:08:43.492Z,81.69
2023-05-19T02:11:13.510Z,82.03
2023-05-19T02:13:41.315Z,82.54
2023-05-19T02:16:09.485Z,82.80
2023-05-19T02:18:39.221Z,82.99
2023-05-19T02:21:07.036Z,83.47
2023-05-19T02:23:34.294Z,83.84
2023-05-19T02:26:01.472Z,84.13
2023-05-19T02:28:28.625Z,84.33
2023-05-19T02:30:55.523Z,84.47
2023-05-19T02:33:24.780Z,84.48
2023-05-19T02:35:51.603Z,84.41
2023-05-19T02:38:18.614Z,84.08
2023-05-19T02:40:45.483Z,84.02
2023-05-19T02:43:12.363Z,83.88
2023-05-19T02:45:40.827Z,83.47
2023-05-19T02:48:07.782Z,83.30
2023-05-19T02:50:34.916Z,82.77
2023-05-19T02:53:02.599Z,82.24
2023-05-19T02:55:29.897Z,81.70
2023-05-19T02:57:56.777Z,81.18
2023-05-19T03:00:23.575Z,79.99
2023-05-19T03:02:53.136Z,77.75
2023-05-19T03:05:20.338Z,76.91
2023-05-19T03:07:50.267Z,76.38
2023-05-19T03:10:17.404Z,76.03
2023-05-19T03:12:44.654Z,75.06
2023-05-19T03:15:13.334Z,74.47
2023-05-19T03:17:40.980Z,73.87
2023-05-19T03:20:08.184Z,72.55
2023-05-19T03:22:35.069Z,72.00
2023-05-19T03:25:02.522Z,71.67
2023-05-19T03:27:30.393Z,71.03
2023-05-19T03:29:57.202Z,70.56
2023-05-19T03:32:24.392Z,70.27
2023-05-19T03:34:51.575Z,69.98
2023-05-19T03:37:18.844Z,69.70
2023-05-19T03:39:45.796Z,69.52
2023-05-19T03:42:12.640Z,69.45
2023-05-19T03:44:39.666Z,69.31
2023-05-19T03:47:06.660Z,69.34
2023-05-19T03:49:42.318Z,69.10
2023-05-19T03:52:43.412Z,69.13
2023-05-19T03:55:21.729Z,69.22
2023-05-19T04:00:46.195Z,69.32
2023-05-19T04:03:14.581Z,69.32
2023-05-19T04:05:41.513Z,69.73
2023-05-19T04:08:10.907Z,69.68
2023-05-19T04:10:37.793Z,69.52
2023-05-19T04:13:04.686Z,69.59
2023-05-19T04:15:31.624Z,69.82
2023-05-19T04:17:58.487Z,69.72
2023-05-19T04:20:25.442Z,69.67
2023-05-19T04:22:52.434Z,69.62
2023-05-19T04:25:20.336Z,69.57
2023-05-19T04:27:48.696Z,69.57
2023-05-19T04:30:22.494Z,69.97
2023-05-19T04:32:54.178Z,70.09
2023-05-19T04:35:21.291Z,69.89
2023-05-19T04:37:48.879Z,69.79
2023-05-19T04:40:21.216Z,69.76
2023-05-19T04:42:49.948Z,69.32
2023-05-19T04:45:17.230Z,68.95
2023-05-19T04:47:52.204Z,68.88
2023-05-19T04:50:24.887Z,68.67
2023-05-19T04:52:52.552Z,68.73
2023-05-19T04:55:21.995Z,68.80
2023-05-19T04:57:50.310Z,68.89
2023-05-19T05:00:17.506Z,68.91
2023-05-19T05:02:58.561Z,69.27
2023-05-19T05:05:28.322Z,69.83
2023-05-19T05:07:58.715Z,70.08
2023-05-19T05:10:28.245Z,70.52
2023-05-19T05:12:55.335Z,71.08
2023-05-19T05:15:22.660Z,71.39
2023-05-19T05:17:50.590Z,71.37
2023-05-19T05:20:19.738Z,71.56
2023-05-19T05:22:46.873Z,71.90
2023-05-19T05:25:15.051Z,72.16
2023-05-19T05:27:42.705Z,72.72
2023-05-19T05:30:09.775Z,72.72
2023-05-19T05:32:39.625Z,72.70
2023-05-19T05:35:12.923Z,72.83
2023-05-19T05:37:40.541Z,72.96
2023-05-19T05:40:08.210Z,73.36
2023-05-19T05:42:35.870Z,73.48
2023-05-19T05:45:03.375Z,73.65
2023-05-19T05:47:31.687Z,73.79
2023-05-19T05:50:02.587Z,73.84
2023-05-19T05:52:30.825Z,74.13
2023-05-19T05:54:59.518Z,74.17
2023-05-19T05:57:27.199Z,74.18
2023-05-19T05:59:54.463Z,74.13
2023-05-19T06:02:22.002Z,73.81
2023-05-19T06:05:16.844Z,73.71
2023-05-19T06:07:45.937Z,73.64
2023-05-19T06:10:45.166Z,73.80
2023-05-19T06:13:22.460Z,73.61
2023-05-19T06:15:53.217Z,73.57
2023-05-19T06:18:27.411Z,73.43
2023-05-19T06:20:56.445Z,73.22
2023-05-19T06:23:24.266Z,73.24
2023-05-19T06:44:11.808Z,72.32
2023-05-19T06:46:38.827Z,72.14
2023-05-19T06:49:05.817Z,71.79
2023-05-19T06:51:38.317Z,71.43
2023-05-19T06:54:05.742Z,71.11
2023-05-19T06:56:57.880Z,70.76
2023-05-19T06:59:24.993Z,70.67
2023-05-19T07:01:52.035Z,70.18
2023-05-19T07:04:19.544Z,69.34
2023-05-19T07:06:46.595Z,68.92
2023-05-19T07:09:13.421Z,68.18
2023-05-19T07:11:41.064Z,66.49
2023-05-19T07:14:08.699Z,66.01
2023-05-19T07:25:49.568Z,63.29
2023-05-19T07:28:16.982Z,63.11
2023-05-19T07:30:44.295Z,63.12
2023-05-19T07:33:11.340Z,63.03
2023-05-19T07:35:39.141Z,63.12
2023-05-19T07:38:07.576Z,62.72
2023-05-19T07:40:34.900Z,62.88
2023-05-19T07:43:01.843Z,62.94
2023-05-19T07:45:28.748Z,62.18
2023-05-19T07:48:14.380Z,62.89
2023-05-19T07:50:41.254Z,63.04
2023-05-19T07:53:08.459Z,62.92
2023-05-19T07:55:38.133Z,62.44
2023-05-19T07:58:05.003Z,62.43
2023-05-19T08:00:32.201Z,62.44
2023-05-19T08:03:00.235Z,62.26
2023-05-19T08:05:27.579Z,61.46
2023-05-19T08:07:54.850Z,59.82
2023-05-19T08:10:21.696Z,59.61
2023-05-19T08:12:48.759Z,59.23
2023-05-19T08:15:18.481Z,58.78
2023-05-19T08:17:46.089Z,58.19
2023-05-19T08:20:13.299Z,58.30
2023-05-19T08:22:40.217Z,56.86
2023-05-19T08:25:07.630Z,56.80
2023-05-19T08:27:34.642Z,56.77
2023-05-19T08:30:05.123Z,56.36
2023-05-19T08:32:32.152Z,54.84
2023-05-19T08:34:59.076Z,54.74
2023-05-19T08:37:26.168Z,54.27
2023-05-19T08:39:53.080Z,53.92
2023-05-19T08:42:19.967Z,52.46
2023-05-19T08:44:46.801Z,53.00
2023-05-19T08:47:14.122Z,52.68
2023-05-19T08:49:51.420Z,53.06
2023-05-19T09:03:17.461Z,45.13
2023-05-19T09:05:46.804Z,43.61
2023-05-19T09:08:13.909Z,44.08
2023-05-19T09:10:41.957Z,44.70
2023-05-19T09:13:08.772Z,43.94
2023-05-19T09:15:38.226Z,42.44
2023-05-19T09:18:09.047Z,41.49
2023-05-19T09:20:41.787Z,39.03
2023-05-19T09:23:11.631Z,37.97
2023-05-19T09:25:38.492Z,37.62
2023-05-19T09:28:05.409Z,37.91
2023-05-19T09:30:32.513Z,36.47
2023-05-19T09:32:59.478Z,35.18
2023-05-19T09:35:26.389Z,33.14
2023-05-19T09:37:53.222Z,33.96
2023-05-19T09:40:20.157Z,33.73
2023-05-19T09:42:48.948Z,34.19
2023-05-19T09:45:16.604Z,31.58
2023-05-19T09:47:44.100Z,32.79
2023-05-19T09:50:12.163Z,32.86
2023-05-19T09:53:07.994Z,32.72
2023-05-19T09:55:35.204Z,32.15
2023-05-19T09:58:04.336Z,30.24
2023-05-19T10:03:46.955Z,28.98
2023-05-19T10:15:46.711Z,30.25
2023-05-19T10:21:04.061Z,30.53
2023-05-19T10:23:31.007Z,29.41
2023-05-19T10:26:25.203Z,29.87
2023-05-19T10:28:54.769Z,29.98
2023-05-19T10:31:22.770Z,30.49
2023-05-19T10:34:11.383Z,30.20
2023-05-19T10:37:09.921Z,29.93
2023-05-19T10:39:37.177Z,29.31
2023-05-19T10:42:34.581Z,30.01
2023-05-19T10:45:10.787Z,30.15
2023-05-19T10:47:37.597Z,30.02
2023-05-19T10:50:04.766Z,29.95
2023-05-19T10:53:02.308Z,30.65
2023-05-19T10:56:06.397Z,30.16
2023-05-19T10:59:03.772Z,29.48
2023-05-19T11:01:34.449Z,29.50
2023-05-19T11:04:05.008Z,29.49
2023-05-19T11:06:38.218Z,28.64
2023-05-19T11:09:15.495Z,29.16
2023-05-19T11:11:55.026Z,29.68
2023-05-19T11:14:33.505Z,29.18
2023-05-19T11:17:01.102Z,28.71
2023-05-19T11:19:31.991Z,28.81
2023-05-19T11:22:13.437Z,29.03
2023-05-19T11:24:40.712Z,29.26
2023-05-19T11:27:26.618Z,29.49
2023-05-19T11:29:53.970Z,30.45
2023-05-19T11:32:21.911Z,30.76
2023-05-19T11:34:49.727Z,30.90
2023-05-19T11:37:16.694Z,31.57
2023-05-19T11:39:43.987Z,32.10
2023-05-19T11:42:11.675Z,32.20
2023-05-19T11:44:41.557Z,31.87
2023-05-19T11:47:08.815Z,32.04
2023-05-19T11:49:36.405Z,32.12
2023-05-19T11:52:04.228Z,31.93
2023-05-19T11:54:32.349Z,31.98
2023-05-19T11:57:03.521Z,32.25
2023-05-19T11:59:36.109Z,31.95
2023-05-19T12:02:04.620Z,31.46
2023-05-19T12:04:32.244Z,31.44
2023-05-19T12:06:59.671Z,31.48
2023-05-19T12:09:26.504Z,30.55
2023-05-19T12:11:53.945Z,31.56
2023-05-19T12:14:20.917Z,31.60
2023-05-19T12:16:48.180Z,31.39
2023-05-19T12:19:15.388Z,31.47
2023-05-19T12:21:42.266Z,30.96
2023-05-19T12:24:09.202Z,30.73
2023-05-19T12:26:37.131Z,30.74
2023-05-19T12:29:07.546Z,30.84
2023-05-19T12:31:34.597Z,30.92
2023-05-19T12:34:02.293Z,30.82
2023-05-19T12:36:29.360Z,31.21
2023-05-19T12:38:56.264Z,30.85
2023-05-19T12:41:24.438Z,30.77
2023-05-19T12:43:51.502Z,30.50
2023-05-19T12:46:22.927Z,30.53
2023-05-19T12:48:50.113Z,29.93
2023-05-19T12:51:20.112Z,29.89
2023-05-19T12:53:47.972Z,29.62
2023-05-19T12:56:15.284Z,29.54
2023-05-19T12:58:42.935Z,28.41
2023-05-19T13:01:17.871Z,28.22
2023-05-19T13:03:46.327Z,28.66
2023-05-19T13:06:13.316Z,28.47
2023-05-19T13:08:41.250Z,28.63
2023-05-19T13:11:08.926Z,28.49
2023-05-19T13:13:36.580Z,28.56
2023-05-19T13:16:03.614Z,28.47
2023-05-19T13:18:35.481Z,28.19
2023-05-19T13:21:03.706Z,28.11
2023-05-19T13:23:30.570Z,27.50
2023-05-19T13:25:59.515Z,27.08
2023-05-19T13:28:26.478Z,27.39
2023-05-19T13:30:53.638Z,27.09
2023-05-19T13:33:20.584Z,27.13
2023-05-19T13:35:47.519Z,27.38
2023-05-19T13:38:14.778Z,27.24
2023-05-19T13:40:50.900Z,27.50
2023-05-19T13:43:20.092Z,27.70
2023-05-19T13:45:47.110Z,28.08
2023-05-19T13:48:14.925Z,27.62
2023-05-19T13:50:42.719Z,28.46
2023-05-19T13:53:11.590Z,28.54
2023-05-19T13:55:38.535Z,27.67
2023-05-19T13:58:05.400Z,27.96
2023-05-19T14:00:33.104Z,28.11
2023-05-19T14:03:00.563Z,27.10
2023-05-19T14:05:29.263Z,27.18
2023-05-19T14:07:56.324Z,26.92
2023-05-19T14:10:23.505Z,27.46
2023-05-19T14:13:25.394Z,26.99
2023-05-19T14:15:56.230Z,26.78
2023-05-19T14:18:29.885Z,27.10
2023-05-19T14:20:56.949Z,27.43
2023-05-19T14:23:24.811Z,27.44
2023-05-19T14:25:54.446Z,27.12
2023-05-19T14:28:21.451Z,26.97
2023-05-19T14:30:49.013Z,27.40
2023-05-19T14:33:16.991Z,27.46
2023-05-19T14:35:43.848Z,27.12
2023-05-19T14:38:10.818Z,27.01
2023-05-19T14:40:38.521Z,27.12
2023-05-19T14:43:05.453Z,25.72
2023-05-19T14:45:32.314Z,26.56
2023-05-19T14:47:59.321Z,26.18
2023-05-19T14:50:28.587Z,25.75
2023-05-19T14:52:56.748Z,25.19
2023-05-19T14:55:23.774Z,24.96
2023-05-19T14:57:51.062Z,23.97
2023-05-19T15:00:18.137Z,22.99
2023-05-19T15:02:46.302Z,22.61
2023-05-19T15:05:19.135Z,22.24
2023-05-19T15:07:46.283Z,21.64
2023-05-19T15:10:13.445Z,20.90
2023-05-19T15:12:42.835Z,20.39
2023-05-19T15:15:12.578Z,20.07
2023-05-19T15:17:42.569Z,19.69
2023-05-19T15:20:09.733Z,20.61
2023-05-19T15:22:36.607Z,22.05
2023-05-19T15:25:08.425Z,23.28
2023-05-19T15:27:36.546Z,24.37
2023-05-19T15:30:21.826Z,25.83
2023-05-19T15:32:51.695Z,27.03
2023-05-19T15:35:18.574Z,27.58
2023-05-19T15:37:48.422Z,27.78
2023-05-19T15:40:17.035Z,28.16
2023-05-19T15:42:46.534Z,28.58
2023-05-19T15:45:13.408Z,28.63
2023-05-19T15:47:41.578Z,28.79
2023-05-19T15:50:08.842Z,29.36
2023-05-19T15:52:37.040Z,29.39
2023-05-19T15:55:04.133Z,29.55
2023-05-19T15:57:33.583Z,30.14
2023-05-19T16:00:00.868Z,30.18
2023-05-19T16:02:29.159Z,30.21
2023-05-19T16:04:56.138Z,30.39
2023-05-19T16:07:23.918Z,30.33
2023-05-19T16:09:51.107Z,30.42
2023-05-19T16:12:18.017Z,30.56
2023-05-19T16:14:47.837Z,31.25
2023-05-19T16:17:15.326Z,31.22
2023-05-19T16:19:42.247Z,31.64
2023-05-19T16:22:09.197Z,31.68
2023-05-19T16:24:36.627Z,31.88
2023-05-19T16:27:03.618Z,32.24
2023-05-19T16:29:30.840Z,32.63
2023-05-19T16:31:57.673Z,32.60
2023-05-19T16:34:24.617Z,32.87
2023-05-19T16:36:51.483Z,33.33
2023-05-19T16:39:18.381Z,33.68
2023-05-19T16:41:45.408Z,33.72
2023-05-19T16:44:14.747Z,34.11
2023-05-19T16:46:41.682Z,34.57
2023-05-19T16:49:09.205Z,34.66
2023-05-19T16:51:36.334Z,34.78
2023-05-19T16:54:03.247Z,34.97
2023-05-19T16:56:30.079Z,35.24
2023-05-19T16:58:57.149Z,35.35
2023-05-19T17:01:24.127Z,35.57
2023-05-19T17:03:51.140Z,35.84
2023-05-19T17:06:19.186Z,35.84
2023-05-19T17:08:46.340Z,36.31
2023-05-19T17:24:29.042Z,37.98
2023-05-19T17:26:55.975Z,38.21
2023-05-19T17:29:23.071Z,38.79
2023-05-19T17:31:52.374Z,39.42
2023-05-19T17:34:19.207Z,39.88
2023-05-19T17:36:46.008Z,40.17
2023-05-19T17:39:12.866Z,40.53
2023-05-19T17:41:39.688Z,40.78
2023-05-19T17:44:06.996Z,40.97
2023-05-19T17:46:38.956Z,41.26
2023-05-19T17:49:06.512Z,41.72
2023-05-19T17:51:52.040Z,41.76
2023-05-19T17:54:19.068Z,42.03
2023-05-19T17:56:45.997Z,42.17
2023-05-19T17:59:14.698Z,42.52
2023-05-19T18:01:41.798Z,42.82
2023-05-19T18:04:09.015Z,42.85
2023-05-19T18:06:38.944Z,43.31
2023-05-19T18:09:12.104Z,43.46
2023-05-19T18:11:38.938Z,43.50
2023-05-19T18:14:06.890Z,43.68
2023-05-19T18:16:33.796Z,43.78
2023-05-19T18:19:01.037Z,44.12
2023-05-19T18:21:28.062Z,44.18
2023-05-19T18:23:54.935Z,44.48
2023-05-19T18:26:21.738Z,44.83
2023-05-19T18:28:48.711Z,44.85
2023-05-19T18:31:33.931Z,45.13
2023-05-19T18:34:00.949Z,45.62
2023-05-19T18:36:27.756Z,45.92
2023-05-19T18:38:55.276Z,46.03
2023-05-19T18:41:22.092Z,46.18
2023-05-19T18:43:49.050Z,46.37
2023-05-19T18:46:17.472Z,46.52
2023-05-19T18:48:44.569Z,46.72
2023-05-19T18:51:11.440Z,46.93
2023-05-19T18:53:38.245Z,47.21
2023-05-19T18:56:05.246Z,47.52
2023-05-19T18:58:32.364Z,47.75
2023-05-19T19:00:59.349Z,47.74
2023-05-19T19:03:26.714Z,47.95
2023-05-19T19:06:12.024Z,48.00
2023-05-19T19:08:38.850Z,48.11
2023-05-19T19:11:09.414Z,48.47
2023-05-19T19:13:36.407Z,48.45
2023-05-19T19:16:03.450Z,48.71
2023-05-19T19:18:30.284Z,48.99
2023-05-19T19:20:57.849Z,49.03
2023-05-19T19:23:43.434Z,49.22
2023-05-19T19:26:10.224Z,49.79
2023-05-19T19:28:37.162Z,49.96
2023-05-19T19:31:04.055Z,49.95
2023-05-19T19:33:31.554Z,50.15
2023-05-19T19:35:58.398Z,50.14
2023-05-19T19:38:25.249Z,50.27
2023-05-19T19:40:52.643Z,50.38
2023-05-19T19:43:19.592Z,50.50
2023-05-19T19:45:49.327Z,50.42
2023-05-19T19:48:16.412Z,50.49
2023-05-19T19:50:43.256Z,50.68
2023-05-19T19:53:10.166Z,50.65
2023-05-19T19:55:37.023Z,51.01
2023-05-19T19:58:03.771Z,50.99
2023-05-19T20:00:30.965Z,51.31
2023-05-19T20:03:04.903Z,51.25
2023-05-19T20:05:33.000Z,51.63
2023-05-19T20:07:59.903Z,51.89
2023-05-19T20:10:26.781Z,52.08
2023-05-19T20:12:53.680Z,52.59
2023-05-19T20:15:20.585Z,53.07
2023-05-19T20:17:47.394Z,53.27
2023-05-19T20:20:14.878Z,53.68
2023-05-19T20:22:41.922Z,53.71
2023-05-19T20:25:08.986Z,53.51
2023-05-19T20:27:35.980Z,54.02
2023-05-19T20:30:02.759Z,54.05
2023-05-19T20:32:30.323Z,54.16
2023-05-19T20:34:57.379Z,54.11
2023-05-19T20:37:24.173Z,54.19
2023-05-19T20:39:51.100Z,54.38
2023-05-19T20:42:18.054Z,54.35
2023-05-19T20:44:44.835Z,54.47
2023-05-19T20:47:11.787Z,54.63
2023-05-19T20:49:38.627Z,54.72
2023-05-19T20:52:05.632Z,54.72
2023-05-19T20:54:33.430Z,54.95
2023-05-19T20:57:00.437Z,54.88
2023-05-19T20:59:27.225Z,54.93
2023-05-19T21:01:54.057Z,54.91
2023-05-19T21:04:21.613Z,55.20
2023-05-19T21:06:48.466Z,55.20
2023-05-19T21:09:15.763Z,55.00
2023-05-19T21:11:42.688Z,55.40
2023-05-19T21:14:09.504Z,55.36
2023-05-19T21:16:38.916Z,55.27
2023-05-19T21:19:09.440Z,55.28
2023-05-19T21:21:38.412Z,55.20
2023-05-19T21:24:05.458Z,55.27
2023-05-19T21:26:32.232Z,55.24
2023-05-19T21:28:59.034Z,55.16
2023-05-19T21:31:26.118Z,55.27
2023-05-19T21:33:53.012Z,55.47
2023-05-19T21:36:19.792Z,55.42
2023-05-19T21:38:46.721Z,55.33
2023-05-19T21:41:13.751Z,55.12
2023-05-19T21:43:45.304Z,54.85
2023-05-19T21:46:12.193Z,55.10
2023-05-19T21:48:39.670Z,54.92
2023-05-19T21:51:07.004Z,54.48
2023-05-19T21:53:34.354Z,54.37
2023-05-19T21:56:01.301Z,54.18
2023-05-19T21:58:28.265Z,54.09
2023-05-19T22:00:56.140Z,53.95
2023-05-19T22:03:23.875Z,53.99
2023-05-19T22:05:51.863Z,54.00
2023-05-19T22:08:19.266Z,54.17
2023-05-19T22:10:51.124Z,54.05
2023-05-19T22:13:18.197Z,54.10
2023-05-19T22:15:45.233Z,54.30
2023-05-19T22:18:12.390Z,54.34
2023-05-19T22:20:39.328Z,54.57
2023-05-19T22:23:06.249Z,54.64
2023-05-19T22:25:33.121Z,54.82
2023-05-19T22:28:01.346Z,55.19
2023-05-19T22:30:28.138Z,55.13
2023-05-19T22:32:55.117Z,55.48
2023-05-19T22:35:22.020Z,55.71
2023-05-19T22:37:48.797Z,56.05
2023-05-19T22:40:15.676Z,56.24
2023-05-19T22:42:42.490Z,56.37
2023-05-19T22:45:09.719Z,56.47
2023-05-19T22:47:36.908Z,56.85
2023-05-19T22:50:04.247Z,56.87
2023-05-19T22:52:31.388Z,56.92
2023-05-19T22:54:58.245Z,57.20
2023-05-19T22:57:24.975Z,57.46
2023-05-19T22:59:51.713Z,58.02
2023-05-19T23:02:19.417Z,57.69
2023-05-19T23:04:46.349Z,57.85
2023-05-19T23:07:13.245Z,57.85
2023-05-19T23:09:40.033Z,58.12
2023-05-19T23:12:07.102Z,58.16
2023-05-19T23:14:34.040Z,58.29
2023-05-19T23:17:00.890Z,58.30
2023-05-19T23:19:29.243Z,58.39
2023-05-19T23:21:56.161Z,58.37
2023-05-19T23:24:23.204Z,58.38
2023-05-19T23:26:49.993Z,58.53
2023-05-19T23:29:16.767Z,58.88
2023-05-19T23:31:44.614Z,59.15
2023-05-19T23:34:12.680Z,58.95
2023-05-19T23:36:39.462Z,58.72
2023-05-19T23:39:06.406Z,58.72
2023-05-19T23:41:33.149Z,58.84
2023-05-19T23:44:00.077Z,59.24
2023-05-19T23:46:27.027Z,58.91
2023-05-19T23:48:53.850Z,58.72
2023-05-19T23:51:20.889Z,58.61
2023-05-19T23:53:47.721Z,58.43
2023-05-19T23:56:14.471Z,58.31
2023-05-19T23:58:41.266Z,58.22
